• Join FlightAware (Why Join?)
  • Login
  • US Flag 
12:23PM EDT


 

Airport Tracker/Info


-or-


 

Live Flight TrackerFlight Track Log ✈ N813JE ✈ 07-Jun-2014 ✈ KBTV - KBED

Flight Track Log - Related Links

Times and Time Zones

All times are in EDT time to prevent confusion due to time zone crossing. See the N813JE flight status page for this flight to view local times or setup timezone preferences in your user account.

Time Position Orientation Groundspeed Altitude Reporting Facility
EDT Latitude Longitude Course Direction KTS MPH feet Rate Location/Type
03:20PM 44.5069 -73.1219 148° Southeast 130 150 3,000  Level Boston Center
03:21PM 44.4753 -73.0906 145° Southeast 135 155 3,700 660 Climbing Boston Center
03:22PM 44.4406 -73.0583 146° Southeast 146 168 4,400 660 Climbing Boston Center
03:23PM 44.4019 -73.0219 146° Southeast 151 174 5,100 660 Climbing Boston Center
03:24PM 44.2919 -72.9834 148° Southeast  Level FlightAware Approximate
03:24PM 44.3661 -72.9886 146° Southeast 153 176 5,800  Level Boston Center
03:25PM 44.2618 -72.9577 148° Southeast  Level FlightAware Approximate
03:25PM 44.3286 -72.9531 146° Southeast 153 176 6,500  Level Boston Center
03:26PM 44.2958 -72.9228 147° Southeast 145 167 7,000 480 Climbing Boston Center
03:27PM 44.2614 -72.8911 147° Southeast 146 168 7,500 180 Climbing Boston Center
03:28PM 44.2214 -72.8542 146° Southeast 159 183 7,400 -60 Descending Boston Center
03:29PM 44.1803 -72.8158 146° Southeast 176 203 7,400  Level Boston Center
03:30PM 44.1397 -72.7781 146° Southeast 176 203 7,400  Level Boston Center
03:31PM 44.0942 -72.7364 147° Southeast 179 206 7,400  Level Boston Center
03:32PM 44.0519 -72.6981 147° Southeast 179 206 7,400  Level Boston Center
03:33PM 44.0072 -72.6564 146° Southeast 180 207 7,400  Level Boston Center
03:34PM 43.9672 -72.6192 146° Southeast 176 203 7,500  Climbing Boston Center
03:35PM 43.9331 -72.5856 145° Southeast 177 204 7,400  Descending Boston Center
03:36PM 43.8903 -72.5292 136° Southeast 177 204 7,500  Climbing Boston Center
03:37PM 43.8478 -72.4939 149° Southeast 178 205 7,500  Level Boston Center
03:38PM 43.8042 -72.4603 151° Southeast 178 205 7,500  Level Boston Center
03:39PM 43.7597 -72.4253 150° Southeast 179 206 7,500 -60 Level Boston Center
03:40PM 43.7139 -72.3956 155° Southeast 179 206 7,400  Descending Boston Center
03:41PM 43.6744 -72.3578 145° Southeast 178 205 7,500  Climbing Boston Center
03:42PM 43.6283 -72.3278 155° Southeast 178 205 7,500  Level Boston Center
03:43PM 43.5836 -72.2958 153° Southeast 178 205 7,500  Level Boston Center
03:44PM 43.5394 -72.2633 152° Southeast 179 206 7,500 -60 Level Boston Center
03:45PM 43.4858 -72.2233 152° Southeast 180 207 7,400  Descending Boston Center
03:46PM 43.4372 -72.1983 160° South 182 209 7,500  Climbing Boston Center
03:47PM 43.3917 -72.1678 154° Southeast 181 208 7,500  Level Boston Center
03:48PM 43.3508 -72.1275 144° Southeast 180 207 7,500 -240 Level Boston Center
03:49PM 43.3061 -72.0825 144° Southeast 184 212 7,100 -360 Descending Boston Center
03:50PM 43.2622 -72.0400 145° Southeast 191 220 6,800 -300 Descending Boston Center
03:51PM 43.2186 -71.9986 145° Southeast 191 220 6,500 -480 Descending Boston Center
03:52PM 43.1703 -71.9508 144° Southeast 196 226 5,900 -600 Descending Boston Center
03:53PM 43.1253 -71.9083 145° Southeast 198 228 5,300 -540 Descending Boston Center
03:54PM 43.0806 -71.8658 145° Southeast 198 228 4,800 -540 Descending Boston Center
03:56PM 43.0319 -71.8197 145° Southeast 198 228 4,200 -600 Descending Boston Center
03:57PM 42.9875 -71.7769 145° Southeast 198 228 3,700 -360 Descending Boston Center
03:58PM 42.9436 -71.7339 144° Southeast 197 227 3,500 -120 Descending Boston Center
03:59PM 42.9019 -71.6950 146° Southeast 185 213 3,500  Level Boston Center
04:00PM 42.8586 -71.6536 145° Southeast 180 207 3,500  Level Boston Center
04:01PM 42.8183 -71.6153 145° Southeast 179 206 3,500  Level Boston Center
04:02PM 42.7775 -71.5769 145° Southeast 179 206 3,500  Level Boston Center
04:03PM 42.7344 -71.5358 145° Southeast 179 206 3,500  Level Boston Center
04:04PM 42.6950 -71.4986 145° Southeast 176 203 3,500  Level Boston Center
04:05PM 42.6539 -71.4608 146° Southeast 177 204 3,500  Level Boston Center
04:06PM 42.6150 -71.4250 146° Southeast 177 204 3,500  Level Boston Center